createdAt,value
2018-11-21T00:00:17.279Z,27.23
2018-11-21T00:02:45.295Z,30.33
2018-11-21T00:05:13.783Z,32.87
2018-11-21T00:07:42.310Z,30.13
2018-11-21T00:10:11.640Z,28.77
2018-11-21T00:12:40.650Z,28.53
2018-11-21T00:15:10.157Z,29.67
2018-11-21T00:17:38.511Z,25.77
2018-11-21T00:20:08.173Z,24.83
2018-11-21T00:22:35.891Z,31.10
2018-11-21T00:25:04.090Z,34.47
2018-11-21T00:27:31.554Z,34.03
2018-11-21T00:29:59.985Z,29.67
2018-11-21T00:32:28.306Z,35.27
2018-11-21T00:34:56.480Z,30.00
2018-11-21T00:37:24.556Z,32.33
2018-11-21T00:39:53.734Z,30.10
2018-11-21T00:42:21.729Z,31.80
2018-11-21T00:44:49.800Z,28.40
2018-11-21T00:47:18.417Z,27.83
2018-11-21T00:49:46.127Z,28.07
2018-11-21T00:52:14.266Z,30.50
2018-11-21T00:54:42.944Z,32.70
2018-11-21T00:57:11.426Z,33.80
2018-11-21T00:59:39.501Z,30.47
2018-11-21T01:02:08.093Z,29.73
2018-11-21T01:04:36.418Z,35.27
2018-11-21T01:07:04.587Z,31.83
2018-11-21T01:09:33.044Z,35.80
2018-11-21T01:12:01.637Z,30.37
2018-11-21T01:14:29.893Z,33.43
2018-11-21T01:16:58.498Z,33.93
2018-11-21T01:19:26.265Z,34.53
2018-11-21T01:21:54.760Z,33.67
2018-11-21T01:24:22.520Z,35.27
2018-11-21T01:26:50.934Z,37.07
2018-11-21T01:29:19.094Z,38.33
2018-11-21T01:31:47.293Z,35.03
2018-11-21T01:34:15.867Z,39.50
2018-11-21T01:36:44.460Z,36.27
2018-11-21T01:39:12.528Z,37.67
2018-11-21T01:41:40.257Z,36.83
2018-11-21T01:44:09.102Z,43.00
2018-11-21T01:46:37.687Z,40.03
2018-11-21T01:49:05.874Z,40.13
2018-11-21T01:51:34.044Z,41.20
2018-11-21T01:54:02.227Z,41.80
2018-11-21T01:56:30.309Z,40.90
2018-11-21T01:58:58.389Z,37.77
2018-11-21T02:01:26.870Z,39.80
2018-11-21T02:03:55.457Z,38.97
2018-11-21T02:06:23.518Z,44.23
2018-11-21T02:08:50.919Z,49.53
2018-11-21T02:11:19.457Z,42.47
2018-11-21T02:13:47.561Z,47.73
2018-11-21T02:16:15.232Z,40.63
2018-11-21T02:18:43.409Z,44.23
2018-11-21T02:21:11.489Z,45.33
2018-11-21T02:23:40.057Z,44.00
2018-11-21T02:26:08.665Z,45.43
2018-11-21T02:28:37.043Z,44.33
2018-11-21T02:31:05.231Z,44.47
2018-11-21T02:33:32.889Z,43.87
2018-11-21T02:36:00.966Z,44.23
2018-11-21T02:38:29.049Z,46.57
2018-11-21T02:40:57.217Z,41.20
2018-11-21T02:43:25.723Z,46.33
2018-11-21T02:45:54.244Z,44.83
2018-11-21T02:48:22.373Z,40.47
2018-11-21T02:50:50.049Z,50.27
2018-11-21T02:53:18.127Z,45.07
2018-11-21T02:55:45.863Z,39.77
2018-11-21T02:58:14.270Z,42.33
2018-11-21T03:00:42.497Z,43.03
2018-11-21T03:03:11.032Z,42.63
2018-11-21T03:05:39.262Z,41.13
2018-11-21T03:08:07.668Z,42.50
2018-11-21T03:10:36.111Z,40.77
2018-11-21T03:13:05.015Z,41.90
2018-11-21T03:15:33.084Z,40.17
2018-11-21T03:18:01.771Z,42.07
2018-11-21T03:20:30.244Z,52.07
2018-11-21T03:22:58.420Z,43.60
2018-11-21T03:25:26.527Z,44.40
2018-11-21T03:27:55.024Z,44.47
2018-11-21T03:30:23.478Z,52.43
2018-11-21T03:32:52.069Z,47.70
2018-11-21T03:35:20.145Z,48.70
2018-11-21T03:37:48.605Z,51.50
2018-11-21T03:40:17.116Z,43.20
2018-11-21T03:42:44.885Z,46.40
2018-11-21T03:45:13.477Z,48.47
2018-11-21T03:47:41.552Z,38.13
2018-11-21T03:50:11.060Z,45.90
2018-11-21T03:52:39.123Z,40.77
2018-11-21T03:55:07.841Z,40.50
2018-11-21T03:57:35.828Z,42.20
2018-11-21T04:00:04.289Z,42.27
2018-11-21T04:02:31.970Z,41.80
2018-11-21T04:05:00.463Z,38.60
2018-11-21T04:07:28.535Z,39.20
2018-11-21T04:09:57.025Z,39.33
2018-11-21T04:12:25.501Z,43.97
2018-11-21T04:14:53.554Z,40.07
2018-11-21T04:17:21.718Z,40.00
2018-11-21T04:19:49.885Z,40.00
2018-11-21T04:22:17.601Z,39.47
2018-11-21T04:24:45.584Z,35.33
2018-11-21T04:27:14.168Z,42.80
2018-11-21T04:29:41.495Z,39.03
2018-11-21T04:32:09.628Z,37.83
2018-11-21T04:34:37.700Z,41.07
2018-11-21T04:37:05.964Z,35.13
2018-11-21T04:39:34.048Z,34.33
2018-11-21T04:42:02.652Z,36.67
2018-11-21T04:44:31.103Z,39.53
2018-11-21T04:46:59.209Z,37.10
2018-11-21T04:49:26.861Z,34.30
2018-11-21T04:51:54.941Z,34.97
2018-11-21T04:54:23.419Z,33.70
2018-11-21T04:56:52.025Z,32.60
2018-11-21T04:59:20.095Z,34.63
2018-11-21T05:01:48.276Z,41.47
2018-11-21T05:04:16.871Z,35.30
2018-11-21T05:06:45.252Z,35.13
2018-11-21T05:09:13.333Z,40.87
2018-11-21T05:11:41.711Z,41.83
2018-11-21T05:14:10.210Z,41.03
2018-11-21T05:16:38.496Z,44.07
2018-11-21T05:19:06.260Z,42.37
2018-11-21T05:21:34.707Z,41.60
2018-11-21T05:24:02.916Z,45.87
2018-11-21T05:26:31.403Z,43.13
2018-11-21T05:28:59.891Z,43.33
2018-11-21T05:31:27.570Z,48.63
2018-11-21T05:33:56.380Z,56.30
2018-11-21T05:36:24.857Z,69.10
2018-11-21T05:38:53.026Z,49.67
2018-11-21T05:41:20.365Z,56.97
2018-11-21T05:43:48.928Z,47.47
2018-11-21T05:46:17.057Z,52.77
2018-11-21T05:48:45.138Z,51.47
2018-11-21T05:51:13.351Z,50.80
2018-11-21T05:53:41.581Z,49.13
2018-11-21T05:56:09.237Z,54.27
2018-11-21T05:58:37.299Z,57.63
2018-11-21T06:01:05.818Z,47.63
2018-11-21T06:03:33.899Z,53.70
2018-11-21T06:06:02.485Z,55.97
2018-11-21T06:08:30.559Z,53.47
2018-11-21T06:10:58.639Z,51.43
2018-11-21T06:13:27.111Z,53.63
2018-11-21T06:15:54.799Z,54.77
2018-11-21T06:18:23.287Z,52.47
2018-11-21T06:20:50.646Z,44.70
2018-11-21T06:23:18.414Z,45.20
2018-11-21T06:25:46.996Z,43.50
2018-11-21T06:28:15.407Z,41.77
2018-11-21T06:30:43.951Z,43.30
2018-11-21T06:33:12.870Z,40.60
2018-11-21T06:35:40.932Z,45.23
2018-11-21T06:38:09.536Z,40.13
2018-11-21T06:40:37.214Z,35.67
2018-11-21T06:43:05.289Z,37.13
2018-11-21T06:45:33.864Z,38.20
2018-11-21T06:48:01.949Z,37.60
2018-11-21T06:50:29.716Z,32.03
2018-11-21T06:52:58.190Z,35.37
2018-11-21T06:55:25.883Z,29.40
2018-11-21T06:57:54.374Z,32.33
2018-11-21T07:00:22.807Z,31.27
2018-11-21T07:02:50.927Z,33.73
2018-11-21T07:05:18.990Z,31.70
2018-11-21T07:07:47.182Z,34.47
2018-11-21T07:10:16.291Z,29.83
2018-11-21T07:12:44.669Z,32.20
2018-11-21T07:15:12.850Z,40.33
2018-11-21T07:17:41.058Z,42.77
2018-11-21T07:20:11.040Z,39.40
2018-11-21T07:22:39.651Z,31.83
2018-11-21T07:25:19.002Z,33.73
2018-11-21T07:27:46.737Z,38.73
2018-11-21T07:30:15.449Z,96.60
2018-11-21T07:32:44.160Z,102.27
2018-11-21T07:35:17.785Z,79.33
2018-11-21T07:37:40.602Z,244.10
2018-11-21T07:40:09.581Z,131.37
2018-11-21T07:42:38.192Z,240.27
2018-11-21T07:45:08.506Z,321.07
2018-11-21T07:47:36.747Z,248.03
2018-11-21T07:50:06.708Z,207.13
2018-11-21T07:52:35.195Z,158.53
2018-11-21T07:55:03.364Z,127.83
2018-11-21T07:57:33.386Z,39.93
2018-11-21T08:00:40.813Z,30.70
2018-11-21T08:03:08.429Z,35.50
2018-11-21T08:05:44.111Z,40.77
2018-11-21T08:08:25.100Z,36.20
2018-11-21T08:11:12.889Z,30.67
2018-11-21T08:14:00.421Z,29.70
2018-11-21T08:16:47.982Z,34.60
2018-11-21T08:19:35.481Z,26.70
2018-11-21T08:22:22.712Z,27.03
2018-11-21T08:25:09.918Z,49.63
2018-11-21T08:27:48.009Z,30.70
2018-11-21T08:30:16.161Z,27.67
2018-11-21T08:32:44.651Z,30.83
2018-11-21T08:35:12.715Z,33.37
2018-11-21T08:37:41.020Z,33.87
2018-11-21T08:40:09.482Z,27.17
2018-11-21T08:42:37.157Z,32.70
2018-11-21T08:45:06.257Z,29.50
2018-11-21T08:47:34.752Z,27.33
2018-11-21T08:50:02.922Z,30.27
2018-11-21T08:52:31.007Z,27.03
2018-11-21T08:54:59.191Z,28.77
2018-11-21T08:57:27.357Z,26.03
2018-11-21T08:59:55.549Z,31.73
2018-11-21T09:02:24.107Z,23.77
2018-11-21T09:04:52.314Z,22.40
2018-11-21T09:07:20.785Z,23.23
2018-11-21T09:09:48.569Z,36.23
2018-11-21T09:12:16.648Z,47.90
2018-11-21T09:14:44.737Z,46.20
2018-11-21T09:17:12.758Z,34.13
2018-11-21T09:19:40.967Z,29.70
2018-11-21T09:22:09.651Z,22.67
2018-11-21T09:24:38.480Z,26.93
2018-11-21T09:27:06.856Z,43.33
2018-11-21T09:29:35.040Z,26.90
2018-11-21T09:32:03.196Z,34.53
2018-11-21T09:34:30.970Z,36.80
2018-11-21T09:36:59.062Z,27.00
2018-11-21T09:39:27.137Z,41.97
2018-11-21T09:41:54.803Z,36.93
2018-11-21T09:44:23.285Z,55.60
2018-11-21T09:46:50.984Z,38.00
2018-11-21T09:49:19.241Z,32.03
2018-11-21T09:51:47.735Z,24.33
2018-11-21T09:54:15.942Z,28.70
2018-11-21T09:57:08.145Z,26.67
2018-11-21T09:59:57.603Z,24.13
2018-11-21T10:03:08.226Z,36.77
2018-11-21T10:05:37.457Z,45.33
2018-11-21T10:08:43.146Z,49.10
2018-11-21T10:11:12.528Z,33.83
2018-11-21T10:13:40.702Z,23.23
2018-11-21T10:16:08.747Z,23.77
2018-11-21T10:18:37.247Z,20.87
2018-11-21T10:21:06.394Z,22.43
2018-11-21T10:23:34.993Z,22.27
2018-11-21T10:26:02.702Z,23.07
2018-11-21T10:28:30.775Z,20.93
2018-11-21T10:30:58.572Z,21.50
2018-11-21T10:33:26.342Z,20.47
2018-11-21T10:35:55.000Z,20.23
2018-11-21T10:38:23.081Z,21.53
2018-11-21T10:40:51.278Z,21.00
2018-11-21T10:43:19.726Z,21.90
2018-11-21T10:45:47.796Z,19.77
2018-11-21T10:48:15.996Z,21.10
2018-11-21T10:50:44.482Z,21.53
2018-11-21T10:53:12.658Z,20.63
2018-11-21T10:55:41.176Z,20.60
2018-11-21T10:58:09.341Z,20.07
2018-11-21T11:00:56.891Z,23.33
2018-11-21T11:03:30.261Z,18.47
2018-11-21T11:06:17.819Z,20.03
2018-11-21T11:09:04.960Z,17.77
2018-11-21T11:11:52.133Z,18.80
2018-11-21T11:14:38.977Z,19.60
2018-11-21T11:17:25.861Z,22.13
2018-11-21T11:20:13.073Z,20.90
2018-11-21T11:23:00.678Z,20.30
2018-11-21T11:25:48.330Z,18.90
2018-11-21T11:28:35.547Z,20.90
2018-11-21T11:31:23.157Z,20.30
2018-11-21T11:34:10.765Z,20.43
2018-11-21T11:36:58.012Z,20.43
2018-11-21T11:39:45.192Z,17.57
2018-11-21T11:42:32.852Z,20.53
2018-11-21T11:45:16.216Z,23.87
2018-11-21T11:48:03.780Z,22.70
2018-11-21T11:50:51.423Z,20.83
2018-11-21T11:53:39.082Z,20.20
2018-11-21T11:56:26.221Z,20.30
2018-11-21T11:59:13.890Z,21.43
2018-11-21T12:02:01.566Z,20.17
2018-11-21T12:04:49.139Z,20.57
2018-11-21T12:07:28.639Z,20.00
2018-11-21T12:10:16.165Z,21.87
2018-11-21T12:13:03.284Z,21.17
2018-11-21T12:15:50.222Z,24.40
2018-11-21T12:18:37.828Z,21.90
2018-11-21T12:21:25.235Z,21.43
2018-11-21T12:24:12.174Z,23.03
2018-11-21T12:26:59.391Z,19.73
2018-11-21T12:29:46.856Z,19.40
2018-11-21T12:32:39.187Z,23.13
2018-11-21T12:35:21.485Z,23.93
2018-11-21T12:38:09.120Z,19.27
2018-11-21T12:40:56.311Z,19.30
2018-11-21T12:43:43.791Z,20.30
2018-11-21T12:46:31.401Z,21.67
2018-11-21T12:49:18.921Z,21.03
2018-11-21T12:52:06.120Z,19.63
2018-11-21T12:54:53.730Z,21.53
2018-11-21T12:57:41.521Z,21.23
2018-11-21T13:00:29.200Z,23.60
2018-11-21T13:03:16.812Z,29.10
2018-11-21T13:06:04.053Z,22.80
2018-11-21T13:08:51.242Z,23.13
2018-11-21T13:11:38.721Z,22.93
2018-11-21T13:14:25.877Z,21.70
2018-11-21T13:17:13.431Z,20.53
2018-11-21T13:20:00.972Z,20.77
2018-11-21T13:22:48.125Z,19.90
2018-11-21T13:25:35.320Z,21.70
2018-11-21T13:28:22.706Z,20.43
2018-11-21T13:31:09.448Z,21.07
2018-11-21T13:33:57.016Z,25.83
2018-11-21T13:36:44.195Z,21.90
2018-11-21T13:39:32.946Z,20.17
2018-11-21T13:42:20.456Z,22.00
2018-11-21T13:45:08.101Z,19.20
2018-11-21T13:47:57.077Z,22.90
2018-11-21T13:50:44.243Z,20.30
2018-11-21T13:53:33.912Z,21.97
2018-11-21T13:56:02.114Z,21.50
2018-11-21T13:58:30.238Z,18.60
2018-11-21T14:01:00.868Z,19.20
2018-11-21T14:03:29.475Z,20.27
2018-11-21T14:05:57.259Z,22.30
2018-11-21T14:08:25.818Z,25.83
2018-11-21T14:10:54.326Z,23.00
2018-11-21T14:13:22.075Z,21.93
2018-11-21T14:15:50.692Z,25.03
2018-11-21T14:18:18.345Z,26.73
2018-11-21T14:20:46.838Z,23.00
2018-11-21T14:23:15.279Z,22.67
2018-11-21T14:25:43.522Z,26.07
2018-11-21T14:28:11.999Z,24.97
2018-11-21T14:30:40.567Z,26.47
2018-11-21T14:33:08.659Z,33.97
2018-11-21T14:35:37.131Z,28.17
2018-11-21T14:38:04.904Z,27.83
2018-11-21T14:40:33.407Z,23.90
2018-11-21T14:43:01.874Z,32.10
2018-11-21T14:45:30.380Z,29.43
2018-11-21T14:47:59.070Z,31.20
2018-11-21T14:50:29.313Z,24.47
2018-11-21T14:52:57.797Z,26.13
2018-11-21T14:55:25.822Z,26.13
2018-11-21T14:57:54.423Z,23.20
2018-11-21T15:00:23.152Z,24.83
2018-11-21T15:02:51.706Z,22.20
2018-11-21T15:05:20.193Z,25.17
2018-11-21T15:07:48.374Z,26.20
2018-11-21T15:10:16.423Z,19.83
2018-11-21T15:12:46.855Z,21.87
2018-11-21T15:15:16.603Z,22.37
2018-11-21T15:17:44.816Z,22.43
2018-11-21T15:20:32.260Z,21.90
2018-11-21T15:23:00.389Z,22.93
2018-11-21T15:25:28.847Z,22.43
2018-11-21T15:27:58.164Z,23.80
2018-11-21T15:30:27.292Z,20.43
2018-11-21T15:32:55.466Z,26.50
2018-11-21T15:35:24.047Z,24.10
2018-11-21T15:37:52.337Z,25.77
2018-11-21T15:40:21.605Z,25.50
2018-11-21T15:42:50.218Z,24.33
2018-11-21T15:45:19.431Z,25.83
2018-11-21T15:47:51.183Z,23.87
2018-11-21T15:50:20.192Z,24.90
2018-11-21T15:52:52.689Z,27.67
2018-11-21T15:55:17.881Z,24.60
2018-11-21T15:57:46.071Z,25.27
2018-11-21T16:00:34.791Z,21.93
2018-11-21T16:03:06.276Z,26.47
2018-11-21T16:05:34.342Z,23.10
2018-11-21T16:08:03.572Z,22.53
2018-11-21T16:10:49.997Z,25.20
2018-11-21T16:13:18.522Z,25.13
2018-11-21T16:15:50.953Z,25.47
2018-11-21T16:18:19.907Z,25.60
2018-11-21T16:20:47.807Z,27.47
2018-11-21T16:23:15.542Z,24.80
2018-11-21T16:25:44.118Z,27.30
2018-11-21T16:28:12.307Z,26.27
2018-11-21T16:30:40.392Z,26.37
2018-11-21T16:33:08.568Z,30.90
2018-11-21T16:35:36.833Z,28.30
2018-11-21T16:38:05.643Z,29.30
2018-11-21T16:40:34.197Z,28.60
2018-11-21T16:43:01.897Z,33.07
2018-11-21T16:45:31.812Z,30.77
2018-11-21T16:47:59.426Z,33.33
2018-11-21T16:50:27.547Z,32.83
2018-11-21T16:52:55.702Z,39.03
2018-11-21T16:55:25.421Z,31.80
2018-11-21T16:57:54.537Z,32.43
2018-11-21T17:00:23.712Z,30.53
2018-11-21T17:02:51.932Z,26.00
2018-11-21T17:05:21.473Z,35.83
2018-11-21T17:07:48.708Z,36.00
2018-11-21T17:10:17.703Z,28.47
2018-11-21T17:12:46.733Z,33.87
2018-11-21T17:15:16.373Z,34.80
2018-11-21T17:18:03.515Z,33.33
2018-11-21T17:20:50.714Z,32.90
2018-11-21T17:23:18.948Z,36.70
2018-11-21T17:25:47.218Z,38.80
2018-11-21T17:28:15.689Z,34.67
2018-11-21T17:30:44.387Z,38.90
2018-11-21T17:33:12.868Z,31.90
2018-11-21T17:35:41.354Z,30.47
2018-11-21T17:38:09.538Z,28.10
2018-11-21T17:40:38.949Z,32.73
2018-11-21T17:43:07.530Z,32.83
2018-11-21T17:45:35.604Z,38.90
2018-11-21T17:48:04.299Z,39.87
2018-11-21T17:50:32.171Z,35.63
2018-11-21T17:53:01.482Z,36.67
2018-11-21T17:55:30.866Z,36.43
2018-11-21T17:57:59.079Z,31.00
2018-11-21T18:00:29.005Z,32.70
2018-11-21T18:02:57.069Z,33.43
2018-11-21T18:05:44.401Z,38.10
2018-11-21T18:08:12.862Z,33.77
2018-11-21T18:10:41.938Z,36.17
2018-11-21T18:13:10.302Z,35.67
2018-11-21T18:15:38.548Z,36.93
2018-11-21T18:18:07.243Z,32.30
2018-11-21T18:20:35.848Z,42.53
2018-11-21T18:23:04.091Z,36.10
2018-11-21T18:25:34.138Z,41.40
2018-11-21T18:28:02.742Z,38.17
2018-11-21T18:30:30.878Z,43.93
2018-11-21T18:32:59.155Z,40.47
2018-11-21T18:35:27.333Z,44.27
2018-11-21T18:37:55.771Z,36.17
2018-11-21T18:40:25.235Z,33.87
2018-11-21T18:42:53.930Z,32.27
2018-11-21T18:45:23.648Z,31.43
2018-11-21T18:47:52.199Z,34.50
2018-11-21T18:50:21.030Z,33.77
2018-11-21T18:52:50.327Z,35.13
2018-11-21T18:55:21.341Z,38.00
2018-11-21T18:58:27.925Z,38.00
2018-11-21T19:00:56.311Z,40.13
2018-11-21T19:03:24.310Z,36.07
2018-11-21T19:06:11.549Z,39.17
2018-11-21T19:08:40.031Z,60.37
2018-11-21T19:11:08.674Z,40.33
2018-11-21T19:13:37.180Z,37.23
2018-11-21T19:16:05.727Z,37.60
2018-11-21T19:18:33.547Z,32.50
2018-11-21T19:21:01.954Z,39.97
2018-11-21T19:23:29.591Z,46.63
2018-11-21T19:25:57.782Z,41.33
2018-11-21T19:28:25.547Z,48.20
2018-11-21T19:30:53.713Z,38.73
2018-11-21T19:33:28.343Z,46.07
2018-11-21T19:35:56.117Z,47.87
2018-11-21T19:38:24.311Z,85.50
2018-11-21T19:40:52.780Z,56.03
2018-11-21T19:43:21.233Z,70.33
2018-11-21T19:45:49.459Z,49.50
2018-11-21T19:48:18.024Z,53.53
2018-11-21T19:50:45.841Z,106.40
2018-11-21T19:53:14.109Z,32.27
2018-11-21T19:55:42.268Z,38.90
2018-11-21T19:58:10.432Z,45.47
2018-11-21T20:00:38.643Z,56.47
2018-11-21T20:03:07.437Z,46.60
2018-11-21T20:05:35.695Z,77.13
2018-11-21T20:08:03.885Z,66.83
2018-11-21T20:10:31.655Z,32.77
2018-11-21T20:13:00.134Z,61.40
2018-11-21T20:15:28.435Z,32.83
2018-11-21T20:18:00.080Z,42.67
2018-11-21T20:20:27.922Z,37.97
2018-11-21T20:22:56.024Z,39.13
2018-11-21T20:25:24.627Z,42.83
2018-11-21T20:27:53.038Z,32.63
2018-11-21T20:30:40.284Z,31.73
2018-11-21T20:33:08.868Z,30.57
2018-11-21T20:35:37.796Z,30.23
2018-11-21T20:38:06.202Z,33.90
2018-11-21T20:40:53.313Z,39.50
2018-11-21T20:43:20.658Z,35.73
2018-11-21T20:45:49.185Z,31.97
2018-11-21T20:48:17.047Z,29.53
2018-11-21T20:50:45.617Z,34.83
2018-11-21T20:53:13.724Z,28.93
2018-11-21T20:55:42.092Z,28.90
2018-11-21T20:58:10.245Z,31.23
2018-11-21T21:00:38.028Z,24.70
2018-11-21T21:05:33.969Z,30.73
2018-11-21T21:08:02.039Z,23.50
2018-11-21T21:10:31.931Z,24.17
2018-11-21T21:13:00.291Z,26.57
2018-11-21T21:15:28.753Z,25.97
2018-11-21T21:17:57.443Z,24.10
2018-11-21T21:20:26.604Z,25.10
2018-11-21T21:22:56.134Z,24.13
2018-11-21T21:25:25.792Z,27.00
2018-11-21T21:27:54.398Z,26.40
2018-11-21T21:30:41.597Z,24.60
2018-11-21T21:33:10.058Z,24.03
2018-11-21T21:35:38.547Z,29.13
2018-11-21T21:38:06.727Z,26.17
2018-11-21T21:40:34.980Z,25.27
2018-11-21T21:43:03.099Z,34.47
2018-11-21T21:45:31.547Z,28.07
2018-11-21T21:47:59.741Z,30.87
2018-11-21T21:50:29.445Z,29.80
2018-11-21T21:52:57.440Z,25.30
2018-11-21T21:55:26.529Z,29.20
2018-11-21T21:57:54.514Z,32.67
2018-11-21T22:00:23.869Z,25.53
2018-11-21T22:02:52.623Z,26.33
2018-11-21T22:05:20.518Z,25.10
2018-11-21T22:07:48.265Z,25.43
2018-11-21T22:10:17.747Z,24.63
2018-11-21T22:12:46.342Z,26.50
2018-11-21T22:15:33.930Z,23.60
2018-11-21T22:18:04.279Z,24.07
2018-11-21T22:20:32.753Z,27.87
2018-11-21T22:23:01.174Z,42.37
2018-11-21T22:25:29.454Z,35.47
2018-11-21T22:27:57.434Z,29.97
2018-11-21T22:30:24.883Z,28.30
2018-11-21T22:32:53.592Z,27.10
2018-11-21T22:35:25.022Z,25.87
2018-11-21T22:37:51.455Z,45.67
2018-11-21T22:40:19.374Z,90.90
2018-11-21T22:42:47.519Z,243.67
2018-11-21T22:45:19.289Z,335.60
2018-11-21T22:47:47.035Z,118.60
2018-11-21T22:50:33.529Z,82.50
2018-11-21T22:53:01.118Z,39.73
2018-11-21T22:55:29.189Z,29.00
2018-11-21T22:57:57.660Z,25.40
2018-11-21T23:00:44.896Z,31.80
2018-11-21T23:03:14.380Z,28.90
2018-11-21T23:05:42.472Z,26.53
2018-11-21T23:08:09.874Z,28.73
2018-11-21T23:10:37.871Z,32.00
2018-11-21T23:13:05.301Z,28.03
2018-11-21T23:15:33.763Z,25.23
2018-11-21T23:18:01.866Z,24.30
2018-11-21T23:20:30.023Z,30.83
2018-11-21T23:22:57.394Z,24.67
2018-11-21T23:25:25.435Z,28.10
2018-11-21T23:27:53.454Z,27.87
2018-11-21T23:30:21.940Z,25.80
2018-11-21T23:32:49.645Z,31.77
2018-11-21T23:35:18.189Z,29.03
2018-11-21T23:37:46.382Z,40.23
2018-11-21T23:40:15.699Z,33.97
2018-11-21T23:43:02.797Z,29.50
2018-11-21T23:45:30.779Z,39.67
2018-11-21T23:47:58.930Z,33.73
2018-11-21T23:50:27.059Z,33.17
2018-11-21T23:52:54.484Z,37.03
2018-11-21T23:55:22.146Z,28.10
2018-11-21T23:57:50.349Z,36.87
